RJSM(METAR)
12/04 19:00
METAR RJSM 041000Z 31016KT 9999 -SHSN FEW008 BKN025 M02/M04 Q1020
RMK 1CU008 5CU025 A3014 MAX WIND 21KT=
戻る
トップページへ戻る
IMOC Co,.Ltd.